createdAt,value
2023-03-12T00:01:24.273Z,14.55
2023-03-12T00:03:51.319Z,13.93
2023-03-12T00:06:19.795Z,13.68
2023-03-12T00:08:46.973Z,14.63
2023-03-12T00:11:19.492Z,15.23
2023-03-12T00:13:52.905Z,15.82
2023-03-12T00:16:20.379Z,16.40
2023-03-12T00:18:52.247Z,15.88
2023-03-12T00:21:21.040Z,15.38
2023-03-12T00:24:37.884Z,16.40
2023-03-12T00:27:04.583Z,16.77
2023-03-12T00:29:31.333Z,15.73
2023-03-12T00:31:57.943Z,17.20
2023-03-12T00:34:24.569Z,16.58
2023-03-12T00:39:32.848Z,16.23
2023-03-12T00:41:59.481Z,16.05
2023-03-12T00:44:26.276Z,15.65
2023-03-12T00:46:53.213Z,16.20
2023-03-12T00:49:19.833Z,16.02
2023-03-12T00:51:46.685Z,16.20
2023-03-12T00:54:13.398Z,15.48
2023-03-12T00:56:39.996Z,15.77
2023-03-12T00:59:09.787Z,15.68
2023-03-12T01:01:36.416Z,15.98
2023-03-12T01:04:03.505Z,16.08
2023-03-12T01:06:30.456Z,16.00
2023-03-12T01:08:57.545Z,16.92
2023-03-12T01:11:24.635Z,17.00
2023-03-12T01:13:51.325Z,16.60
2023-03-12T01:16:18.193Z,17.58
2023-03-12T01:18:45.005Z,17.35
2023-03-12T01:21:11.705Z,18.05
2023-03-12T01:23:38.606Z,17.50
2023-03-12T01:26:05.241Z,18.52
2023-03-12T01:28:32.012Z,18.33
2023-03-12T01:30:58.668Z,19.75
2023-03-12T01:33:25.359Z,19.17
2023-03-12T01:35:52.089Z,18.80
2023-03-12T01:38:20.652Z,19.48
2023-03-12T01:40:47.237Z,18.65
2023-03-12T01:43:31.796Z,18.25
2023-03-12T01:46:26.700Z,19.30
2023-03-12T01:49:09.431Z,18.55
2023-03-12T01:51:50.297Z,18.58
2023-03-12T01:54:25.100Z,19.77
2023-03-12T01:56:54.051Z,18.80
2023-03-12T01:59:26.150Z,17.05
2023-03-12T02:01:53.178Z,18.17
2023-03-12T02:04:23.729Z,15.23
2023-03-12T02:07:05.022Z,16.55
2023-03-12T02:09:36.757Z,15.15
2023-03-12T02:12:04.521Z,16.25
2023-03-12T02:14:32.115Z,15.73
2023-03-12T02:16:59.137Z,15.32
2023-03-12T02:19:48.638Z,16.55
2023-03-12T02:22:15.914Z,15.60
2023-03-12T02:24:54.522Z,17.20
2023-03-12T02:27:22.535Z,16.25
2023-03-12T02:29:50.154Z,17.40
2023-03-12T02:32:27.813Z,19.30
2023-03-12T02:34:56.830Z,18.52
2023-03-12T02:37:23.597Z,17.00
2023-03-12T02:39:57.297Z,16.67
2023-03-12T02:42:24.801Z,17.23
2023-03-12T02:44:51.615Z,17.38
2023-03-12T02:47:18.626Z,17.90
2023-03-12T02:49:46.435Z,18.67
2023-03-12T02:52:13.806Z,18.20
2023-03-12T02:54:42.054Z,18.02
2023-03-12T02:57:08.653Z,19.63
2023-03-12T02:59:35.340Z,19.65
2023-03-12T03:02:04.355Z,20.60
2023-03-12T03:04:31.920Z,19.60
2023-03-12T03:06:58.661Z,18.42
2023-03-12T03:09:25.758Z,19.52
2023-03-12T03:11:53.062Z,19.73
2023-03-12T03:14:20.554Z,19.85
2023-03-12T03:16:50.463Z,18.92
2023-03-12T03:19:17.586Z,17.90
2023-03-12T03:21:44.218Z,19.10
2023-03-12T03:24:10.962Z,19.10
2023-03-12T03:26:37.743Z,18.08
2023-03-12T03:29:04.898Z,19.02
2023-03-12T03:31:31.797Z,18.05
2023-03-12T03:33:58.663Z,18.13
2023-03-12T03:36:25.633Z,17.75
2023-03-12T03:39:01.512Z,17.67
2023-03-12T03:41:29.930Z,18.35
2023-03-12T03:43:58.473Z,18.75
2023-03-12T03:46:25.886Z,18.20
2023-03-12T03:48:58.253Z,19.08
2023-03-12T03:51:25.051Z,18.20
2023-03-12T03:53:56.986Z,18.90
2023-03-12T03:56:23.936Z,18.33
2023-03-12T03:58:50.825Z,17.88
2023-03-12T04:01:20.018Z,23.80
2023-03-12T04:03:47.941Z,17.67
2023-03-12T04:06:14.734Z,18.38
2023-03-12T04:08:44.069Z,18.23
2023-03-12T04:11:17.719Z,18.33
2023-03-12T04:13:45.803Z,18.45
2023-03-12T04:16:15.881Z,18.50
2023-03-12T04:18:43.715Z,17.05
2023-03-12T04:21:13.442Z,18.08
2023-03-12T04:23:41.166Z,18.27
2023-03-12T04:26:09.618Z,17.38
2023-03-12T04:28:37.385Z,17.38
2023-03-12T04:31:07.686Z,16.77
2023-03-12T04:33:39.944Z,17.73
2023-03-12T04:36:08.653Z,18.77
2023-03-12T04:38:37.238Z,20.17
2023-03-12T04:41:11.801Z,17.92
2023-03-12T04:43:43.633Z,19.23
2023-03-12T04:46:11.410Z,18.35
2023-03-12T04:48:44.740Z,17.77
2023-03-12T04:51:12.681Z,18.48
2023-03-12T04:53:40.386Z,17.35
2023-03-12T04:56:09.296Z,17.52
2023-03-12T04:58:36.852Z,18.15
2023-03-12T05:01:05.433Z,19.13
2023-03-12T05:03:32.750Z,18.58
2023-03-12T05:05:59.949Z,18.55
2023-03-12T05:08:26.589Z,17.83
2023-03-12T05:10:53.787Z,18.05
2023-03-12T05:13:22.596Z,19.05
2023-03-12T05:15:52.512Z,17.63
2023-03-12T05:18:21.282Z,18.95
2023-03-12T05:20:57.437Z,19.42
2023-03-12T05:23:24.446Z,18.67
2023-03-12T05:25:51.085Z,18.67
2023-03-12T05:28:17.842Z,19.00
2023-03-12T05:30:44.510Z,20.00
2023-03-12T05:33:11.411Z,19.25
2023-03-12T05:35:38.089Z,19.73
2023-03-12T05:38:04.848Z,18.80
2023-03-12T05:40:31.504Z,20.25
2023-03-12T05:42:59.472Z,20.10
2023-03-12T05:45:27.335Z,21.20
2023-03-12T05:47:56.112Z,20.73
2023-03-12T05:50:22.784Z,20.10
2023-03-12T05:52:49.505Z,19.73
2023-03-12T05:55:16.575Z,20.60
2023-03-12T05:57:43.335Z,19.05
2023-03-12T06:00:13.800Z,19.83
2023-03-12T06:02:42.489Z,23.20
2023-03-12T06:05:11.750Z,21.85
2023-03-12T06:07:38.820Z,24.50
2023-03-12T06:10:06.119Z,24.77
2023-03-12T06:12:32.785Z,23.77
2023-03-12T06:15:00.611Z,24.95
2023-03-12T06:17:29.554Z,24.02
2023-03-12T06:19:56.187Z,23.90
2023-03-12T06:22:22.853Z,23.48
2023-03-12T06:24:49.865Z,22.85
2023-03-12T06:27:17.619Z,23.55
2023-03-12T06:29:47.030Z,23.63
2023-03-12T06:32:14.490Z,22.92
2023-03-12T06:34:41.356Z,23.63
2023-03-12T06:37:08.004Z,23.30
2023-03-12T06:39:34.633Z,23.00
2023-03-12T06:42:01.370Z,22.70
2023-03-12T06:44:28.108Z,23.70
2023-03-12T06:46:55.271Z,23.23
2023-03-12T06:49:22.221Z,22.60
2023-03-12T06:51:48.996Z,23.02
2023-03-12T06:54:15.843Z,21.60
2023-03-12T06:56:42.566Z,23.45
2023-03-12T06:59:09.213Z,23.40
2023-03-12T07:01:35.826Z,22.90
2023-03-12T07:04:02.725Z,22.90
2023-03-12T07:06:29.855Z,24.63
2023-03-12T07:08:56.447Z,23.30
2023-03-12T07:11:23.372Z,23.73
2023-03-12T07:13:50.074Z,23.25
2023-03-12T07:16:16.758Z,22.77
2023-03-12T07:18:43.477Z,24.23
2023-03-12T07:21:10.136Z,27.83
2023-03-12T07:23:36.719Z,25.20
2023-03-12T07:26:05.445Z,25.92
2023-03-12T07:28:32.153Z,24.67
2023-03-12T07:31:04.152Z,24.40
2023-03-12T07:33:30.888Z,26.38
2023-03-12T07:35:57.623Z,25.60
2023-03-12T07:38:24.711Z,25.52
2023-03-12T07:40:53.737Z,24.88
2023-03-12T07:43:21.833Z,26.70
2023-03-12T07:45:50.940Z,24.77
2023-03-12T07:48:19.705Z,25.02
2023-03-12T07:50:46.826Z,25.85
2023-03-12T07:53:13.484Z,25.38
2023-03-12T07:55:40.628Z,26.23
2023-03-12T07:58:07.439Z,27.70
2023-03-12T08:00:34.202Z,27.20
2023-03-12T08:03:01.083Z,26.05
2023-03-12T08:05:28.039Z,26.13
2023-03-12T08:07:55.396Z,36.10
2023-03-12T08:10:22.598Z,32.88
2023-03-12T08:12:49.794Z,32.60
2023-03-12T08:15:16.563Z,33.20
2023-03-12T08:17:43.273Z,32.63
2023-03-12T08:20:10.845Z,35.05
2023-03-12T08:22:38.896Z,34.20
2023-03-12T08:25:06.024Z,31.58
2023-03-12T08:27:33.788Z,31.33
2023-03-12T08:30:00.620Z,34.00
2023-03-12T08:32:27.351Z,33.65
2023-03-12T08:34:54.055Z,31.25
2023-03-12T08:37:20.645Z,28.80
2023-03-12T08:39:47.248Z,30.40
2023-03-12T08:42:13.842Z,29.05
2023-03-12T08:44:40.523Z,32.85
2023-03-12T08:47:07.120Z,34.55
2023-03-12T08:49:33.776Z,32.80
2023-03-12T08:52:00.583Z,28.10
2023-03-12T08:54:27.214Z,30.63
2023-03-12T08:56:53.943Z,30.45
2023-03-12T08:59:22.137Z,31.73
2023-03-12T09:01:49.053Z,32.83
2023-03-12T09:04:16.289Z,33.53
2023-03-12T09:06:43.221Z,30.85
2023-03-12T09:09:09.984Z,30.17
2023-03-12T09:11:39.577Z,32.95
2023-03-12T09:16:52.938Z,34.63
2023-03-12T09:19:20.460Z,34.10
2023-03-12T09:21:47.084Z,28.52
2023-03-12T09:24:13.677Z,27.48
2023-03-12T09:26:40.352Z,23.60
2023-03-12T09:29:07.063Z,22.83
2023-03-12T09:31:34.565Z,19.27
2023-03-12T09:34:01.174Z,18.58
2023-03-12T09:36:28.232Z,18.52
2023-03-12T09:38:57.648Z,51.88
2023-03-12T09:41:28.081Z,21.20
2023-03-12T09:44:13.399Z,18.02
2023-03-12T09:49:33.991Z,18.98
2023-03-12T09:52:07.773Z,19.13
2023-03-12T09:54:47.424Z,17.02
2023-03-12T09:57:24.619Z,19.38
2023-03-12T09:59:52.274Z,17.25
2023-03-12T10:02:29.253Z,16.48
2023-03-12T10:05:05.745Z,18.33
2023-03-12T10:07:47.739Z,17.05
2023-03-12T10:10:22.358Z,18.02
2023-03-12T10:12:51.959Z,18.83
2023-03-12T10:15:21.456Z,18.15
2023-03-12T10:18:10.085Z,16.85
2023-03-12T10:21:01.114Z,23.00
2023-03-12T10:23:34.423Z,20.63
2023-03-12T10:26:18.287Z,19.52
2023-03-12T10:28:48.402Z,17.90
2023-03-12T10:31:30.921Z,22.63
2023-03-12T10:33:59.990Z,17.00
2023-03-12T10:36:40.147Z,21.65
2023-03-12T10:39:19.629Z,21.02
2023-03-12T10:41:47.749Z,18.55
2023-03-12T10:44:21.195Z,21.92
2023-03-12T10:47:09.616Z,19.48
2023-03-12T10:49:37.310Z,19.23
2023-03-12T10:52:05.434Z,20.95
2023-03-12T10:54:35.220Z,21.70
2023-03-12T10:57:02.290Z,21.52
2023-03-12T10:59:37.987Z,23.35
2023-03-12T11:02:29.391Z,21.10
2023-03-12T11:04:56.485Z,26.17
2023-03-12T11:07:35.165Z,24.27
2023-03-12T11:10:17.229Z,25.58
2023-03-12T11:13:21.701Z,25.85
2023-03-12T11:15:48.836Z,27.52
2023-03-12T11:18:29.126Z,26.00
2023-03-12T11:21:09.434Z,27.83
2023-03-12T11:23:39.533Z,25.52
2023-03-12T11:26:20.322Z,21.90
2023-03-12T11:28:49.869Z,22.08
2023-03-12T11:31:24.106Z,23.65
2023-03-12T11:33:54.352Z,19.50
2023-03-12T11:36:43.201Z,24.00
2023-03-12T11:40:11.208Z,47.70
2023-03-12T11:42:41.166Z,28.60
2023-03-12T11:45:14.836Z,30.65
2023-03-12T11:47:57.189Z,33.78
2023-03-12T11:50:38.712Z,36.75
2023-03-12T11:53:49.444Z,34.65
2023-03-12T11:56:16.027Z,39.72
2023-03-12T11:58:54.136Z,34.03
2023-03-12T12:01:53.368Z,26.33
2023-03-12T12:04:57.412Z,33.10
2023-03-12T12:07:41.023Z,36.70
2023-03-12T12:10:37.927Z,32.70
2023-03-12T12:13:26.677Z,34.20
2023-03-12T12:16:31.147Z,39.92
2023-03-12T12:19:26.799Z,31.30
2023-03-12T12:22:06.266Z,52.03
2023-03-12T12:24:39.433Z,53.92
2023-03-12T12:27:31.662Z,62.40
2023-03-12T12:30:04.471Z,71.47
2023-03-12T12:32:37.189Z,58.30
2023-03-12T12:35:19.649Z,41.25
2023-03-12T12:38:15.056Z,35.35
2023-03-12T12:40:51.276Z,47.22
2023-03-12T12:43:41.241Z,42.42
2023-03-12T12:46:24.835Z,46.35
2023-03-12T12:48:53.481Z,37.90
2023-03-12T12:51:25.164Z,52.10
2023-03-12T12:54:10.323Z,39.63
2023-03-12T12:59:31.392Z,41.22
2023-03-12T13:01:59.958Z,38.67
2023-03-12T13:04:32.397Z,41.35
2023-03-12T13:07:20.117Z,36.83
2023-03-12T13:09:52.752Z,33.70
2023-03-12T13:12:25.190Z,31.90
2023-03-12T13:14:53.420Z,34.35
2023-03-12T13:17:36.527Z,30.83
2023-03-12T13:20:20.609Z,29.55
2023-03-12T13:22:58.543Z,36.47
2023-03-12T13:25:48.172Z,27.85
2023-03-12T13:28:35.870Z,23.90
2023-03-12T13:31:28.746Z,37.28
2023-03-12T13:34:19.347Z,31.75
2023-03-12T13:36:50.131Z,22.73
2023-03-12T13:39:16.673Z,20.73
2023-03-12T13:41:49.652Z,18.67
2023-03-12T13:44:38.969Z,21.88
2023-03-12T13:47:18.818Z,17.63
2023-03-12T13:50:10.439Z,16.80
2023-03-12T13:52:40.045Z,16.98
2023-03-12T13:55:26.362Z,14.60
2023-03-12T13:58:04.747Z,15.48
2023-03-12T14:00:41.544Z,18.00
2023-03-12T14:03:17.208Z,16.70
2023-03-12T14:06:13.490Z,19.77
2023-03-12T14:08:53.844Z,19.58
2023-03-12T14:11:51.614Z,17.63
2023-03-12T14:14:43.646Z,16.92
2023-03-12T14:17:24.185Z,14.27
2023-03-12T14:20:25.100Z,16.80
2023-03-12T14:23:05.647Z,15.05
2023-03-12T14:25:36.377Z,18.90
2023-03-12T14:28:10.724Z,16.42
2023-03-12T14:30:59.651Z,15.55
2023-03-12T14:33:31.734Z,16.52
2023-03-12T14:36:20.583Z,14.48
2023-03-12T14:38:49.239Z,13.82
2023-03-12T14:41:27.708Z,13.63
2023-03-12T14:43:54.577Z,12.23
2023-03-12T14:46:23.746Z,12.68
2023-03-12T14:48:52.534Z,12.38
2023-03-12T14:51:27.961Z,11.48
2023-03-12T14:53:56.219Z,12.45
2023-03-12T14:56:24.696Z,10.50
2023-03-12T14:58:52.046Z,12.15
2023-03-12T15:01:25.672Z,13.35
2023-03-12T15:04:04.536Z,14.52
2023-03-12T15:06:37.857Z,14.52
2023-03-12T15:09:06.973Z,12.85
2023-03-12T15:11:35.905Z,14.23
2023-03-12T15:14:07.105Z,15.25
2023-03-12T15:16:34.402Z,13.50
2023-03-12T15:19:03.556Z,10.45
2023-03-12T15:21:34.406Z,12.25
2023-03-12T15:24:01.298Z,12.52
2023-03-12T15:26:34.607Z,13.50
2023-03-12T15:29:03.198Z,12.85
2023-03-12T15:31:47.662Z,10.77
2023-03-12T15:34:35.042Z,11.40
2023-03-12T15:37:18.252Z,10.77
2023-03-12T15:39:48.605Z,12.73
2023-03-12T15:42:17.525Z,13.00
2023-03-12T15:44:51.935Z,13.75
2023-03-12T15:47:21.845Z,11.35
2023-03-12T15:49:53.324Z,14.20
2023-03-12T15:52:19.946Z,14.73
2023-03-12T15:55:00.937Z,17.15
2023-03-12T15:57:28.385Z,16.83
2023-03-12T16:00:17.479Z,14.93
2023-03-12T16:03:01.566Z,16.60
2023-03-12T16:05:38.843Z,17.55
2023-03-12T16:08:29.100Z,16.20
2023-03-12T16:10:56.320Z,16.90
2023-03-12T16:13:30.921Z,15.27
2023-03-12T16:15:59.043Z,15.65
2023-03-12T16:18:26.388Z,17.92
2023-03-12T16:20:53.603Z,16.65
2023-03-12T16:23:20.252Z,17.20
2023-03-12T16:25:52.844Z,18.80
2023-03-12T16:28:20.466Z,14.80
2023-03-12T16:30:47.339Z,19.30
2023-03-12T16:33:17.069Z,13.75
2023-03-12T16:35:44.705Z,16.85
2023-03-12T16:38:11.402Z,14.60
2023-03-12T16:40:42.379Z,14.65
2023-03-12T16:43:15.928Z,12.65
2023-03-12T16:45:44.901Z,13.00
2023-03-12T16:48:16.343Z,13.40
2023-03-12T16:50:50.531Z,13.18
2023-03-12T16:53:17.392Z,11.80
2023-03-12T16:56:00.701Z,11.75
2023-03-12T16:58:29.014Z,13.43
2023-03-12T17:00:56.829Z,12.82
2023-03-12T17:03:35.444Z,13.45
2023-03-12T17:06:03.067Z,11.95
2023-03-12T17:08:29.756Z,12.48
2023-03-12T17:10:57.670Z,13.13
2023-03-12T17:13:27.716Z,14.65
2023-03-12T17:15:55.695Z,14.65
2023-03-12T17:18:22.628Z,15.88
2023-03-12T17:20:51.470Z,14.68
2023-03-12T17:23:18.100Z,14.35
2023-03-12T17:25:45.102Z,14.80
2023-03-12T17:28:13.421Z,14.02
2023-03-12T17:30:40.041Z,13.27
2023-03-12T17:33:12.256Z,14.07
2023-03-12T17:35:39.827Z,12.27
2023-03-12T17:38:06.695Z,13.07
2023-03-12T17:40:33.791Z,15.48
2023-03-12T17:43:00.459Z,13.20
2023-03-12T17:45:27.473Z,11.93
2023-03-12T17:47:54.077Z,14.18
2023-03-12T17:50:20.778Z,10.88
2023-03-12T17:52:47.425Z,14.43
2023-03-12T17:55:14.188Z,13.30
2023-03-12T17:57:40.953Z,11.77
2023-03-12T18:00:12.501Z,13.23
2023-03-12T18:02:42.601Z,11.15
2023-03-12T18:05:10.813Z,10.57
2023-03-12T18:07:37.861Z,12.27
2023-03-12T18:10:07.468Z,11.18
2023-03-12T18:12:34.401Z,12.40
2023-03-12T18:15:01.113Z,10.05
2023-03-12T18:17:27.683Z,10.60
2023-03-12T18:19:54.260Z,11.43
2023-03-12T18:22:20.919Z,13.65
2023-03-12T18:24:47.794Z,11.88
2023-03-12T18:27:14.445Z,13.23
2023-03-12T18:29:41.240Z,10.85
2023-03-12T18:32:08.594Z,13.38
2023-03-12T18:34:35.774Z,14.05
2023-03-12T18:37:02.423Z,14.05
2023-03-12T18:39:29.200Z,12.73
2023-03-12T18:41:55.896Z,13.50
2023-03-12T18:44:22.735Z,13.43
2023-03-12T18:46:51.569Z,14.65
2023-03-12T18:49:18.309Z,14.48
2023-03-12T18:51:45.072Z,14.15
2023-03-12T18:54:12.540Z,13.00
2023-03-12T18:56:40.660Z,14.15
2023-03-12T18:59:09.596Z,13.88
2023-03-12T19:01:36.916Z,12.98
2023-03-12T19:04:03.768Z,11.90
2023-03-12T19:06:37.815Z,13.10
2023-03-12T19:09:14.845Z,13.07
2023-03-12T19:11:41.483Z,14.02
2023-03-12T19:14:08.094Z,11.95
2023-03-12T19:16:34.829Z,13.52
2023-03-12T19:19:01.524Z,14.27
2023-03-12T19:21:28.357Z,14.15
2023-03-12T19:23:54.995Z,13.55
2023-03-12T19:26:21.907Z,13.20
2023-03-12T19:28:48.530Z,15.35
2023-03-12T19:31:15.456Z,14.80
2023-03-12T19:33:42.960Z,16.58
2023-03-12T19:36:10.145Z,14.85
2023-03-12T19:38:36.882Z,14.73
2023-03-12T19:41:03.551Z,16.30
2023-03-12T19:43:30.171Z,16.23
2023-03-12T19:45:56.881Z,15.15
2023-03-12T19:48:25.187Z,15.20
2023-03-12T19:50:53.477Z,15.70
2023-03-12T19:53:20.140Z,15.00
2023-03-12T19:55:48.356Z,15.18
2023-03-12T19:58:15.752Z,15.68
2023-03-12T20:00:43.192Z,15.30
2023-03-12T20:03:10.154Z,16.63
2023-03-12T20:05:36.842Z,17.33
2023-03-12T20:08:03.618Z,15.35
2023-03-12T20:10:32.177Z,15.65
2023-03-12T20:12:58.895Z,18.13
2023-03-12T20:15:26.208Z,18.50
2023-03-12T20:17:54.629Z,16.75
2023-03-12T20:20:21.314Z,16.95
2023-03-12T20:22:47.961Z,16.25
2023-03-12T20:25:14.696Z,15.75
2023-03-12T20:27:41.354Z,15.15
2023-03-12T20:30:08.880Z,16.27
2023-03-12T20:32:35.756Z,15.25
2023-03-12T20:35:02.501Z,15.15
2023-03-12T20:37:29.151Z,16.08
2023-03-12T20:39:55.789Z,16.30
2023-03-12T20:42:22.473Z,15.15
2023-03-12T20:44:49.050Z,15.18
2023-03-12T20:47:15.644Z,16.00
2023-03-12T20:49:42.239Z,15.15
2023-03-12T20:52:08.851Z,17.33
2023-03-12T20:54:35.653Z,15.52
2023-03-12T20:57:02.300Z,16.45
2023-03-12T20:59:28.884Z,16.45
2023-03-12T21:01:55.533Z,16.27
2023-03-12T21:04:22.272Z,15.50
2023-03-12T21:06:51.473Z,16.20
2023-03-12T21:09:18.490Z,16.00
2023-03-12T21:11:45.071Z,18.08
2023-03-12T21:14:11.654Z,17.00
2023-03-12T21:16:38.297Z,19.55
2023-03-12T21:19:04.940Z,18.83
2023-03-12T21:21:32.069Z,18.02
2023-03-12T21:23:58.711Z,16.98
2023-03-12T21:26:25.516Z,16.60
2023-03-12T21:28:52.094Z,16.85
2023-03-12T21:31:18.919Z,16.60
2023-03-12T21:33:45.703Z,17.67
2023-03-12T21:36:14.216Z,17.23
2023-03-12T21:38:42.856Z,16.75
2023-03-12T21:41:15.389Z,17.23
2023-03-12T21:43:43.465Z,16.70
2023-03-12T21:46:15.742Z,18.08
2023-03-12T21:48:47.273Z,18.85
2023-03-12T21:51:16.731Z,16.00
2023-03-12T21:53:43.746Z,17.40
2023-03-12T21:56:11.136Z,17.42
2023-03-12T21:58:37.846Z,17.75
2023-03-12T22:01:14.271Z,18.25
2023-03-12T22:03:42.752Z,16.75
2023-03-12T22:06:10.396Z,17.98
2023-03-12T22:08:37.701Z,18.80
2023-03-12T22:11:05.838Z,17.25
2023-03-12T22:13:32.760Z,17.45
2023-03-12T22:16:03.241Z,18.60
2023-03-12T22:18:30.134Z,19.08
2023-03-12T22:21:03.223Z,18.27
2023-03-12T22:23:30.155Z,18.98
2023-03-12T22:26:00.792Z,19.08
2023-03-12T22:28:27.434Z,20.73
2023-03-12T22:30:59.301Z,18.90
2023-03-12T22:33:26.881Z,19.60
2023-03-12T22:35:53.793Z,18.15
2023-03-12T22:38:21.199Z,19.65
2023-03-12T22:40:47.947Z,22.65
2023-03-12T22:43:14.963Z,21.88
2023-03-12T22:45:42.197Z,19.30
2023-03-12T22:48:08.974Z,20.13
2023-03-12T22:50:35.619Z,18.92
2023-03-12T22:53:02.244Z,19.73
2023-03-12T22:55:28.892Z,20.23
2023-03-12T22:57:55.472Z,19.25
2023-03-12T23:00:22.847Z,18.77
2023-03-12T23:02:50.508Z,19.17
2023-03-12T23:05:17.239Z,18.85
2023-03-12T23:07:44.256Z,18.75
2023-03-12T23:10:11.302Z,19.33
2023-03-12T23:12:37.941Z,18.52
2023-03-12T23:15:05.457Z,20.02
2023-03-12T23:17:32.052Z,17.98
2023-03-12T23:19:59.005Z,17.88
2023-03-12T23:22:25.688Z,19.75
2023-03-12T23:24:52.494Z,19.42
2023-03-12T23:27:19.161Z,18.88
2023-03-12T23:29:45.832Z,19.20
2023-03-12T23:32:12.865Z,18.83
2023-03-12T23:34:39.604Z,20.30
2023-03-12T23:37:07.080Z,19.10
2023-03-12T23:39:39.387Z,20.00
2023-03-12T23:42:15.265Z,18.83
2023-03-12T23:44:41.980Z,18.77
2023-03-12T23:47:08.594Z,19.67
2023-03-12T23:49:35.225Z,19.77
2023-03-12T23:52:01.873Z,19.73
2023-03-12T23:54:28.461Z,20.73
2023-03-12T23:56:56.105Z,20.42
2023-03-12T23:59:23.035Z,19.45
